Time;durP1;ratioP1;P1;durP2;ratioP2;P2;SDS_P1;SDS_P2;PMS_P1;PMS_P2;Temp;Humidity;BMP_temperature;BMP_pressure;BME280_temperature;BME280_humidity;BME280_pressure;Samples;Min_cycle;Max_cycle;Signal;HPM_P1;HPM_P2
2021/10/29 00:00:13;;;;;;;7.13;4.72;;;;;;;;;;5053894;28;20028;-55
2021/10/29 00:02:39;;;;;;;7.68;4.65;;;;;;;;;;5053332;28;20185;-56
2021/10/29 00:05:06;;;;;;;9.30;5.15;;;;;;;;;;5053038;28;20025;-55
2021/10/29 00:07:32;;;;;;;9.35;4.32;;;;;;;;;;5053560;28;20025;-56
2021/10/29 00:09:59;;;;;;;7.30;4.68;;;;;;;;;;5053372;28;20294;-56
2021/10/29 00:12:25;;;;;;;7.85;3.97;;;;;;;;;;5053792;28;20029;-55
2021/10/29 00:14:51;;;;;;;7.10;4.53;;;;;;;;;;5052819;28;20036;-55
2021/10/29 00:17:18;;;;;;;4.72;3.55;;;;;;;;;;5052952;28;20032;-55
2021/10/29 00:19:44;;;;;;;7.75;4.55;;;;;;;;;;5053777;28;20024;-55
2021/10/29 00:22:10;;;;;;;7.55;4.03;;;;;;;;;;5053735;28;20033;-55
2021/10/29 00:24:36;;;;;;;5.65;3.90;;;;;;;;;;5052371;28;20021;-56
2021/10/29 00:27:02;;;;;;;6.18;3.90;;;;;;;;;;5053674;28;20028;-56
2021/10/29 00:29:28;;;;;;;6.60;4.28;;;;;;;;;;5051893;28;20032;-55
2021/10/29 00:31:54;;;;;;;7.18;4.65;;;;;;;;;;5052581;28;20044;-55
2021/10/29 00:34:20;;;;;;;5.93;3.80;;;;;;;;;;5052605;28;20355;-55
2021/10/29 00:36:46;;;;;;;11.45;4.53;;;;;;;;;;5053521;28;20170;-56
2021/10/29 00:39:12;;;;;;;9.13;4.22;;;;;;;;;;5053036;28;20029;-56
2021/10/29 00:41:39;;;;;;;7.65;3.85;;;;;;;;;;5053605;28;20024;-56
2021/10/29 00:44:06;;;;;;;7.65;3.97;;;;;;;;;;5052597;28;20108;-55
2021/10/29 00:46:32;;;;;;;6.90;3.83;;;;;;;;;;5053280;28;20037;-55
2021/10/29 00:48:58;;;;;;;7.90;4.03;;;;;;;;;;5052646;28;20748;-56
2021/10/29 00:51:25;;;;;;;6.22;3.95;;;;;;;;;;5053208;28;20429;-55
2021/10/29 00:53:51;;;;;;;5.95;3.50;;;;;;;;;;5051626;28;20047;-55
2021/10/29 00:56:18;;;;;;;6.85;3.45;;;;;;;;;;5052950;28;20025;-56
2021/10/29 00:58:44;;;;;;;7.63;3.97;;;;;;;;;;5052955;28;20021;-56
2021/10/29 01:01:11;;;;;;;6.50;3.33;;;;;;;;;;5052497;28;20024;-55
2021/10/29 01:03:39;;;;;;;7.78;4.05;;;;;;;;;;5051895;28;20028;-55
2021/10/29 01:06:05;;;;;;;7.32;4.05;;;;;;;;;;5053005;28;20041;-55
2021/10/29 01:08:31;;;;;;;6.97;3.42;;;;;;;;;;5052405;28;20029;-55
2021/10/29 01:10:57;;;;;;;6.55;4.18;;;;;;;;;;5052385;28;20375;-56
2021/10/29 01:13:23;;;;;;;6.47;3.40;;;;;;;;;;5051707;28;20400;-55
2021/10/29 01:15:50;;;;;;;8.43;4.05;;;;;;;;;;5052673;28;20107;-56
2021/10/29 01:18:16;;;;;;;4.97;3.17;;;;;;;;;;5052745;28;20021;-55
2021/10/29 01:20:42;;;;;;;7.20;3.72;;;;;;;;;;5051712;28;20473;-55
2021/10/29 01:23:08;;;;;;;7.47;3.70;;;;;;;;;;5051648;28;20029;-56
2021/10/29 01:25:34;;;;;;;4.43;3.17;;;;;;;;;;5052160;28;20053;-55
2021/10/29 01:28:00;;;;;;;5.93;3.60;;;;;;;;;;5046154;28;20359;-55
2021/10/29 01:30:26;;;;;;;6.63;3.58;;;;;;;;;;5052463;28;20435;-56
2021/10/29 01:32:52;;;;;;;8.20;3.90;;;;;;;;;;5052269;28;20086;-55
2021/10/29 01:35:18;;;;;;;8.10;3.78;;;;;;;;;;5051662;28;20112;-55
2021/10/29 01:37:44;;;;;;;5.13;3.38;;;;;;;;;;5052406;28;20025;-55
2021/10/29 01:40:13;;;;;;;5.13;3.13;;;;;;;;;;5052115;28;20025;-55
2021/10/29 01:42:39;;;;;;;8.65;3.90;;;;;;;;;;5051882;28;20028;-55
2021/10/29 01:45:06;;;;;;;6.75;3.97;;;;;;;;;;5051808;28;20025;-56
2021/10/29 01:47:32;;;;;;;6.70;4.05;;;;;;;;;;5052902;28;20347;-56
2021/10/29 01:49:58;;;;;;;6.53;3.38;;;;;;;;;;5052087;28;20025;-55
2021/10/29 01:52:24;;;;;;;6.95;3.97;;;;;;;;;;5052530;28;20120;-55
2021/10/29 01:54:51;;;;;;;8.25;4.40;;;;;;;;;;5051181;28;20455;-56
2021/10/29 01:57:17;;;;;;;10.90;5.13;;;;;;;;;;5052252;28;20036;-55
2021/10/29 01:59:43;;;;;;;7.47;4.75;;;;;;;;;;5051340;28;20405;-55
2021/10/29 02:02:09;;;;;;;9.75;4.97;;;;;;;;;;5051913;28;20056;-56
2021/10/29 02:04:35;;;;;;;6.95;4.13;;;;;;;;;;5051183;28;20158;-55
2021/10/29 02:07:01;;;;;;;7.53;4.25;;;;;;;;;;5038497;28;20478;-56
2021/10/29 02:09:27;;;;;;;6.25;3.65;;;;;;;;;;5040254;28;20032;-55
2021/10/29 02:11:53;;;;;;;6.35;3.60;;;;;;;;;;5032073;28;20060;-55
2021/10/29 02:14:19;;;;;;;6.65;3.80;;;;;;;;;;5031610;28;20029;-55
2021/10/29 02:16:45;;;;;;;10.13;4.07;;;;;;;;;;5030220;28;20029;-56
2021/10/29 02:19:11;;;;;;;6.75;3.92;;;;;;;;;;5031789;28;20029;-56
2021/10/29 02:21:37;;;;;;;5.82;3.45;;;;;;;;;;5032638;28;20088;-56
2021/10/29 02:24:04;;;;;;;6.90;4.00;;;;;;;;;;5030449;28;20075;-55
2021/10/29 02:26:30;;;;;;;4.70;3.22;;;;;;;;;;5032549;28;20363;-55
2021/10/29 02:28:56;;;;;;;6.35;3.78;;;;;;;;;;5036047;28;20018;-55
2021/10/29 02:31:22;;;;;;;5.85;3.50;;;;;;;;;;5034864;28;20045;-55
2021/10/29 02:33:48;;;;;;;5.20;3.45;;;;;;;;;;5034719;28;20053;-56
2021/10/29 02:36:14;;;;;;;4.35;2.70;;;;;;;;;;5035623;28;20088;-56
2021/10/29 02:38:40;;;;;;;4.82;3.08;;;;;;;;;;5035095;28;20022;-56
2021/10/29 02:41:06;;;;;;;6.93;4.05;;;;;;;;;;5035833;28;20455;-55
2021/10/29 02:43:32;;;;;;;3.35;2.50;;;;;;;;;;5034501;28;20022;-55
2021/10/29 02:45:58;;;;;;;5.28;2.78;;;;;;;;;;5035190;28;20396;-55
2021/10/29 02:48:24;;;;;;;4.68;3.30;;;;;;;;;;5035090;28;20029;-55
2021/10/29 02:50:50;;;;;;;5.03;2.83;;;;;;;;;;5035531;28;20371;-55
2021/10/29 02:53:16;;;;;;;6.95;3.33;;;;;;;;;;5034291;28;20104;-55
2021/10/29 02:55:43;;;;;;;7.03;3.53;;;;;;;;;;5035486;28;20104;-55
2021/10/29 02:58:09;;;;;;;5.22;3.22;;;;;;;;;;5035535;28;20032;-55
2021/10/29 03:00:36;;;;;;;5.22;3.03;;;;;;;;;;5035076;28;20032;-55
2021/10/29 03:03:02;;;;;;;4.20;2.85;;;;;;;;;;5034359;28;20025;-55
2021/10/29 03:05:28;;;;;;;4.35;2.47;;;;;;;;;;5034925;28;20025;-56
2021/10/29 03:07:55;;;;;;;3.75;2.92;;;;;;;;;;5034817;28;20336;-56
2021/10/29 03:10:21;;;;;;;6.32;3.50;;;;;;;;;;5035073;28;20017;-55
2021/10/29 03:12:47;;;;;;;5.47;3.05;;;;;;;;;;5035222;28;20022;-56
2021/10/29 03:15:13;;;;;;;5.05;3.10;;;;;;;;;;5033539;28;20029;-55
2021/10/29 03:17:39;;;;;;;6.68;2.92;;;;;;;;;;5034559;28;20034;-56
2021/10/29 03:20:06;;;;;;;4.25;2.95;;;;;;;;;;5034893;28;20576;-55
2021/10/29 03:22:32;;;;;;;3.92;3.00;;;;;;;;;;5034361;28;20040;-56
2021/10/29 03:24:58;;;;;;;4.53;3.03;;;;;;;;;;5033841;28;20109;-55
2021/10/29 03:27:24;;;;;;;5.05;2.90;;;;;;;;;;5034707;28;20457;-55
2021/10/29 03:29:50;;;;;;;4.60;3.55;;;;;;;;;;5033869;28;20121;-55
2021/10/29 03:32:19;;;;;;;4.18;2.72;;;;;;;;;;5034585;28;20099;-55
2021/10/29 03:34:45;;;;;;;2.50;2.30;;;;;;;;;;5033777;28;20028;-55
2021/10/29 03:37:28;;;;;;;4.85;2.88;;;;;;;;;;5034101;28;20026;-55
2021/10/29 03:40:09;;;;;;;9.10;3.35;;;;;;;;;;5033260;28;20114;-55
2021/10/29 03:42:41;;;;;;;3.67;2.58;;;;;;;;;;5034205;28;20100;-55
2021/10/29 03:45:10;;;;;;;4.43;2.30;;;;;;;;;;5033132;28;20118;-56
2021/10/29 03:48:11;;;;;;;3.15;2.47;;;;;;;;;;5033315;28;20025;-55
2021/10/29 03:50:31;;;;;;;4.93;2.65;;;;;;;;;;5033032;28;20045;-55
2021/10/29 03:55:44;;;;;;;4.05;3.08;;;;;;;;;;5034231;28;20087;-55
2021/10/29 03:58:10;;;;;;;3.72;2.42;;;;;;;;;;5034395;28;20033;-55
2021/10/29 04:00:37;;;;;;;5.78;3.28;;;;;;;;;;5033748;28;20047;-56
2021/10/29 04:03:04;;;;;;;4.57;2.60;;;;;;;;;;5032878;28;20026;-55
2021/10/29 04:05:31;;;;;;;5.03;3.10;;;;;;;;;;5034086;28;20269;-56
2021/10/29 04:07:57;;;;;;;4.38;2.83;;;;;;;;;;5033428;28;20455;-55
2021/10/29 04:10:26;;;;;;;4.45;2.70;;;;;;;;;;5033747;28;20033;-55
2021/10/29 04:12:55;;;;;;;4.95;2.15;;;;;;;;;;5033413;28;20116;-55
2021/10/29 04:15:22;;;;;;;7.18;2.22;;;;;;;;;;5033442;28;20411;-55
2021/10/29 04:17:48;;;;;;;4.32;2.90;;;;;;;;;;5033640;28;20083;-55
2021/10/29 04:20:15;;;;;;;4.85;2.88;;;;;;;;;;5034038;28;20030;-55
2021/10/29 04:22:41;;;;;;;3.67;2.08;;;;;;;;;;5033069;28;20030;-55
2021/10/29 04:25:07;;;;;;;4.25;2.50;;;;;;;;;;5032304;28;20104;-56
2021/10/29 04:27:35;;;;;;;4.78;2.45;;;;;;;;;;5033693;28;20028;-55
2021/10/29 04:30:02;;;;;;;5.13;2.35;;;;;;;;;;5032710;28;20065;-55
2021/10/29 04:32:28;;;;;;;3.67;2.25;;;;;;;;;;5032492;28;20030;-56
2021/10/29 04:34:54;;;;;;;3.67;2.42;;;;;;;;;;5032362;28;20035;-55
2021/10/29 04:37:20;;;;;;;4.10;2.70;;;;;;;;;;5033565;28;20092;-55
2021/10/29 04:39:47;;;;;;;4.35;2.47;;;;;;;;;;5043932;28;20658;-55
2021/10/29 04:42:16;;;;;;;4.18;2.97;;;;;;;;;;5048652;28;20025;-56
2021/10/29 04:44:42;;;;;;;5.57;3.38;;;;;;;;;;5052284;28;20025;-55
2021/10/29 04:47:08;;;;;;;6.55;2.60;;;;;;;;;;5053119;28;20044;-55
2021/10/29 04:49:34;;;;;;;6.03;3.08;;;;;;;;;;5052930;28;20021;-55
2021/10/29 04:52:00;;;;;;;6.85;3.40;;;;;;;;;;5053082;28;20032;-55
2021/10/29 04:54:26;;;;;;;3.63;2.53;;;;;;;;;;5052339;28;20354;-55
2021/10/29 04:56:52;;;;;;;2.83;2.30;;;;;;;;;;5053128;28;20063;-55
2021/10/29 04:59:19;;;;;;;3.72;2.42;;;;;;;;;;5053555;28;20013;-55
2021/10/29 05:01:46;;;;;;;4.35;2.70;;;;;;;;;;5052472;28;20067;-55
2021/10/29 05:04:13;;;;;;;3.75;2.88;;;;;;;;;;5052465;28;20126;-55
2021/10/29 05:06:39;;;;;;;4.53;2.50;;;;;;;;;;5047928;28;20044;-55
2021/10/29 05:09:05;;;;;;;5.75;3.15;;;;;;;;;;5040821;28;20047;-55
2021/10/29 05:11:31;;;;;;;4.53;2.67;;;;;;;;;;5052134;28;20044;-55
2021/10/29 05:13:57;;;;;;;6.78;3.38;;;;;;;;;;5039449;28;20028;-55
2021/10/29 05:16:23;;;;;;;3.35;2.38;;;;;;;;;;5035426;28;20026;-56
2021/10/29 05:18:49;;;;;;;3.78;2.58;;;;;;;;;;5032792;28;20080;-55
2021/10/29 05:21:14;;;;;;;6.32;2.67;;;;;;;;;;5031834;28;20132;-55
2021/10/29 05:23:41;;;;;;;2.72;2.13;;;;;;;;;;5031762;28;20021;-55
2021/10/29 05:26:07;;;;;;;5.10;2.72;;;;;;;;;;5031398;28;20030;-55
2021/10/29 05:28:33;;;;;;;3.10;2.28;;;;;;;;;;5032673;28;20387;-55
2021/10/29 05:30:59;;;;;;;7.35;3.60;;;;;;;;;;5030639;28;20068;-53
2021/10/29 05:33:26;;;;;;;4.50;2.55;;;;;;;;;;5032205;28;20075;-54
2021/10/29 05:35:52;;;;;;;4.13;2.83;;;;;;;;;;5032421;28;20103;-53
2021/10/29 05:38:18;;;;;;;3.97;2.42;;;;;;;;;;5032738;28;20096;-53
2021/10/29 05:40:44;;;;;;;2.97;1.95;;;;;;;;;;5033019;28;20420;-53
2021/10/29 05:43:10;;;;;;;6.45;2.50;;;;;;;;;;5031266;28;20033;-53
2021/10/29 05:45:36;;;;;;;5.22;2.25;;;;;;;;;;5032293;28;20030;-54
2021/10/29 05:48:05;;;;;;;3.83;2.60;;;;;;;;;;5032866;28;20039;-53
2021/10/29 05:50:31;;;;;;;3.88;2.38;;;;;;;;;;5032207;28;20033;-53
2021/10/29 05:52:58;;;;;;;5.95;2.33;;;;;;;;;;5031862;28;20040;-53
2021/10/29 05:55:24;;;;;;;3.38;2.03;;;;;;;;;;5032592;28;20038;-53
2021/10/29 05:57:51;;;;;;;3.45;2.03;;;;;;;;;;5031733;28;20025;-53
2021/10/29 06:00:22;;;;;;;3.40;2.13;;;;;;;;;;5032533;28;20337;-53
2021/10/29 06:02:49;;;;;;;4.13;2.20;;;;;;;;;;5034662;28;20044;-53
2021/10/29 06:05:16;;;;;;;4.90;2.38;;;;;;;;;;5035485;28;20044;-53
2021/10/29 06:07:43;;;;;;;8.55;3.45;;;;;;;;;;5036124;28;20110;-53
2021/10/29 06:10:13;;;;;;;3.30;2.00;;;;;;;;;;5036199;28;20021;-53
2021/10/29 06:12:39;;;;;;;5.32;2.15;;;;;;;;;;5035055;28;20045;-53
2021/10/29 06:15:06;;;;;;;3.28;2.03;;;;;;;;;;5035729;28;20032;-53
2021/10/29 06:17:33;;;;;;;3.75;2.30;;;;;;;;;;5036197;28;20033;-54
2021/10/29 06:19:59;;;;;;;2.28;1.95;;;;;;;;;;5035529;28;20415;-54
2021/10/29 06:22:58;;;;;;;2.45;2.03;;;;;;;;;;5035879;28;20021;-53
2021/10/29 06:25:25;;;;;;;3.40;1.98;;;;;;;;;;5034005;28;20068;-53
2021/10/29 06:30:37;;;;;;;4.15;2.05;;;;;;;;;;5035647;28;20064;-53
2021/10/29 06:33:03;;;;;;;5.03;2.33;;;;;;;;;;5034939;28;20060;-53
2021/10/29 06:35:30;;;;;;;4.15;2.17;;;;;;;;;;5035359;28;20022;-53
2021/10/29 06:37:57;;;;;;;2.50;1.75;;;;;;;;;;5035939;28;20377;-53
2021/10/29 06:40:24;;;;;;;2.38;1.70;;;;;;;;;;5035752;28;20029;-54
2021/10/29 06:42:54;;;;;;;2.13;1.40;;;;;;;;;;5034594;28;20049;-54
2021/10/29 07:01:44;;;;;;;5.25;2.88;;;;;;;;;;5035341;28;20040;-54
2021/10/29 07:04:35;;;;;;;16.90;6.20;;;;;;;;;;5034088;28;20021;-53
2021/10/29 07:42:28;;;;;;;8.88;3.67;;;;;;;;;;5034067;28;20056;-54
2021/10/29 07:44:54;;;;;;;;;;;;;;;;;;5034483;28;20075;-54
2021/10/29 07:47:20;;;;;;;5.07;3.60;;;;;;;;;;5034299;28;19912;-53
2021/10/29 07:49:46;;;;;;;7.18;4.25;;;;;;;;;;5033915;28;20033;-54
2021/10/29 07:52:14;;;;;;;9.60;3.60;;;;;;;;;;5034207;28;20152;-54
2021/10/29 07:54:44;;;;;;;8.35;4.80;;;;;;;;;;5033465;28;20041;-54
2021/10/29 07:57:11;;;;;;;9.93;4.03;;;;;;;;;;5033861;28;20314;-54
2021/10/29 07:59:37;;;;;;;15.65;6.00;;;;;;;;;;5034393;28;20085;-53
2021/10/29 08:02:03;;;;;;;15.15;5.50;;;;;;;;;;5033919;28;20029;-53
2021/10/29 08:04:29;;;;;;;10.20;5.15;;;;;;;;;;5033105;28;20071;-53
2021/10/29 08:06:55;;;;;;;14.23;6.07;;;;;;;;;;5034162;28;20159;-54
2021/10/29 08:09:23;;;;;;;13.85;6.53;;;;;;;;;;5033582;28;20385;-53
2021/10/29 08:11:50;;;;;;;13.40;5.47;;;;;;;;;;5045628;28;20033;-53
2021/10/29 08:14:16;;;;;;;13.18;6.55;;;;;;;;;;5052917;28;20029;-53
2021/10/29 08:16:42;;;;;;;15.23;6.65;;;;;;;;;;5052259;28;20470;-54
2021/10/29 08:19:08;;;;;;;16.33;6.85;;;;;;;;;;5046737;28;20108;-53
2021/10/29 08:21:35;;;;;;;12.82;5.25;;;;;;;;;;5034036;28;20028;-53
2021/10/29 08:24:01;;;;;;;16.27;5.43;;;;;;;;;;5032640;28;20018;-54
2021/10/29 08:26:27;;;;;;;15.45;5.53;;;;;;;;;;5033229;28;20029;-54
2021/10/29 08:28:53;;;;;;;9.18;4.95;;;;;;;;;;5033171;28;20057;-54
2021/10/29 08:31:19;;;;;;;11.43;5.63;;;;;;;;;;5033461;28;20516;-54
2021/10/29 08:33:45;;;;;;;12.35;5.82;;;;;;;;;;5032544;28;20026;-54
2021/10/29 08:36:12;;;;;;;12.18;6.35;;;;;;;;;;5033165;28;20040;-54
2021/10/29 08:38:39;;;;;;;16.58;7.57;;;;;;;;;;5033507;28;20092;-54
2021/10/29 08:41:05;;;;;;;19.10;7.35;;;;;;;;;;5033027;28;20358;-54
2021/10/29 08:43:31;;;;;;;26.20;9.40;;;;;;;;;;5032333;28;20041;-54
2021/10/29 08:45:57;;;;;;;21.75;10.25;;;;;;;;;;5033566;28;20030;-54
2021/10/29 08:48:26;;;;;;;20.02;8.45;;;;;;;;;;5032642;28;20461;-53
2021/10/29 08:50:52;;;;;;;22.65;9.57;;;;;;;;;;5033185;28;20112;-54
2021/10/29 08:53:18;;;;;;;22.13;8.88;;;;;;;;;;5032341;28;20124;-54
2021/10/29 08:55:44;;;;;;;22.13;8.90;;;;;;;;;;5033110;28;20057;-54
2021/10/29 08:58:11;;;;;;;13.82;6.40;;;;;;;;;;5032654;28;20462;-54
2021/10/29 09:00:42;;;;;;;13.50;6.22;;;;;;;;;;5033121;28;20096;-54
2021/10/29 09:03:23;;;;;;;15.45;6.72;;;;;;;;;;5031762;28;20029;-54
2021/10/29 09:06:30;;;;;;;14.38;6.00;;;;;;;;;;5033671;28;20021;-54
2021/10/29 09:31:25;;;;;;;10.82;4.80;;;;;;;;;;5031982;28;20115;-53
2021/10/29 09:33:53;;;;;;;11.38;4.53;;;;;;;;;;5031482;28;20474;-54
2021/10/29 09:36:25;;;;;;;7.40;3.70;;;;;;;;;;5034463;28;20082;-54
2021/10/29 09:38:58;;;;;;;9.18;4.38;;;;;;;;;;5035469;28;20455;-54
2021/10/29 09:41:24;;;;;;;9.13;4.68;;;;;;;;;;5036952;28;20447;-54
2021/10/29 09:44:05;;;;;;;7.38;3.85;;;;;;;;;;5035554;28;20447;-54
2021/10/29 09:46:34;;;;;;;6.88;3.88;;;;;;;;;;5036734;28;20040;-54
2021/10/29 09:49:09;;;;;;;9.60;3.92;;;;;;;;;;5036599;28;20354;-54
2021/10/29 09:51:47;;;;;;;7.50;4.40;;;;;;;;;;5036500;28;20049;-54
2021/10/29 09:54:20;;;;;;;13.13;6.53;;;;;;;;;;5034276;28;20030;-54
2021/10/29 09:56:54;;;;;;;16.38;6.13;;;;;;;;;;5036846;28;20038;-54
2021/10/29 09:59:20;;;;;;;16.52;5.95;;;;;;;;;;5036308;28;20029;-54
2021/10/29 10:01:46;;;;;;;9.18;4.07;;;;;;;;;;5044221;28;20033;-54
2021/10/29 10:04:13;;;;;;;11.73;4.53;;;;;;;;;;5039051;28;20451;-54
2021/10/29 10:06:40;;;;;;;6.53;3.70;;;;;;;;;;5036254;28;20053;-54
2021/10/29 10:09:08;;;;;;;8.73;4.28;;;;;;;;;;5036185;28;20475;-54
2021/10/29 10:11:35;;;;;;;20.52;7.13;;;;;;;;;;5036188;28;20126;-54
2021/10/29 10:14:03;;;;;;;15.68;6.57;;;;;;;;;;5035410;28;20026;-54
2021/10/29 10:16:29;;;;;;;13.77;6.38;;;;;;;;;;5035640;28;20029;-54
2021/10/29 10:18:56;;;;;;;13.65;6.50;;;;;;;;;;5036333;28;20053;-54
2021/10/29 10:21:25;;;;;;;10.13;5.38;;;;;;;;;;5035963;28;20033;-54
2021/10/29 10:23:54;;;;;;;12.07;5.25;;;;;;;;;;5034519;28;20459;-53
2021/10/29 10:26:30;;;;;;;7.20;4.32;;;;;;;;;;5036027;28;20336;-54
2021/10/29 10:29:27;;;;;;;15.48;6.38;;;;;;;;;;5033785;28;20021;-54
2021/10/29 10:48:14;;;;;;;9.68;5.28;;;;;;;;;;5034883;28;20036;-54
2021/10/29 10:50:45;;;;;;;12.90;5.65;;;;;;;;;;5035479;28;20060;-54
2021/10/29 10:53:22;;;;;;;12.32;5.22;;;;;;;;;;5034300;28;20037;-54
2021/10/29 10:56:05;;;;;;;8.27;4.50;;;;;;;;;;5035518;28;20029;-54
2021/10/29 11:10:01;;;;;;;7.78;4.28;;;;;;;;;;5012887;28;20033;-54
2021/10/29 11:12:38;;;;;;;9.10;4.05;;;;;;;;;;5012744;28;20046;-54
2021/10/29 11:15:09;;;;;;;6.03;3.70;;;;;;;;;;5011578;28;20092;-54
2021/10/29 11:17:42;;;;;;;10.73;5.00;;;;;;;;;;5012548;28;20037;-54
2021/10/29 11:20:10;;;;;;;12.00;5.05;;;;;;;;;;5012569;28;20037;-54
2021/10/29 11:22:42;;;;;;;13.32;6.65;;;;;;;;;;5012339;28;20022;-54
2021/10/29 11:25:09;;;;;;;9.65;5.03;;;;;;;;;;5028301;28;20514;-54
2021/10/29 11:27:39;;;;;;;7.22;4.47;;;;;;;;;;5032025;28;20033;-54
2021/10/29 11:30:05;;;;;;;10.35;4.35;;;;;;;;;;5031608;28;20115;-54
2021/10/29 11:32:31;;;;;;;9.57;4.93;;;;;;;;;;5032262;28;20053;-53
2021/10/29 11:34:59;;;;;;;9.85;5.22;;;;;;;;;;5031500;28;20029;-54
2021/10/29 11:37:25;;;;;;;11.88;5.60;;;;;;;;;;5031099;28;20026;-53
2021/10/29 11:39:51;;;;;;;13.20;6.25;;;;;;;;;;5032149;28;20043;-54
2021/10/29 11:42:18;;;;;;;10.70;4.85;;;;;;;;;;5031917;28;20033;-53
2021/10/29 11:44:45;;;;;;;7.65;4.93;;;;;;;;;;5031554;28;20030;-54
2021/10/29 11:47:11;;;;;;;9.90;4.97;;;;;;;;;;5034137;28;20626;-54
2021/10/29 11:49:37;;;;;;;7.07;3.83;;;;;;;;;;5034683;28;20026;-53
2021/10/29 11:52:05;;;;;;;11.27;4.40;;;;;;;;;;5033557;28;20336;-53
2021/10/29 11:54:40;;;;;;;7.93;4.55;;;;;;;;;;5033714;28;20021;-53
2021/10/29 12:00:16;;;;;;;9.75;5.70;;;;;;;;;;5033032;28;20037;-54
2021/10/29 12:08:37;;;;;;;14.40;5.70;;;;;;;;;;5034503;28;20032;-53
2021/10/29 12:11:06;;;;;;;13.15;6.70;;;;;;;;;;5033620;28;20459;-53
2021/10/29 12:13:33;;;;;;;11.35;5.53;;;;;;;;;;5032612;28;20487;-54
2021/10/29 12:16:00;;;;;;;13.85;5.95;;;;;;;;;;5033620;28;20044;-54
2021/10/29 12:18:33;;;;;;;16.30;7.13;;;;;;;;;;5033906;28;20017;-54
2021/10/29 12:20:59;;;;;;;13.10;6.10;;;;;;;;;;5033246;28;20086;-54
2021/10/29 12:23:30;;;;;;;15.10;6.90;;;;;;;;;;5033006;28;20052;-54
2021/10/29 12:26:06;;;;;;;14.50;5.85;;;;;;;;;;5033640;28;20029;-53
2021/10/29 12:31:06;;;;;;;15.05;6.70;;;;;;;;;;5033424;28;20087;-53
2021/10/29 13:01:42;;;;;;;15.30;7.97;;;;;;;;;;5038367;28;20359;-54
2021/10/29 13:04:09;;;;;;;13.13;6.28;;;;;;;;;;5047694;28;20037;-54
2021/10/29 13:06:35;;;;;;;20.73;7.05;;;;;;;;;;5052859;28;20060;-54
2021/10/29 13:09:11;;;;;;;18.73;8.15;;;;;;;;;;5053054;28;20340;-54
2021/10/29 13:11:38;;;;;;;17.45;7.05;;;;;;;;;;5048919;28;20593;-54
2021/10/29 13:14:06;;;;;;;14.77;7.28;;;;;;;;;;5039706;28;20133;-54
2021/10/29 13:16:32;;;;;;;20.50;7.40;;;;;;;;;;5049249;28;20108;-54
2021/10/29 13:20:11;;;;;;;21.02;7.55;;;;;;;;;;5051730;28;20017;-55
2021/10/29 13:24:48;;;;;;;12.77;6.75;;;;;;;;;;5052482;28;20060;-54
2021/10/29 14:02:51;;;;;;;15.85;8.57;;;;;;;;;;5050024;28;20056;-53
2021/10/29 14:30:12;;;;;;;22.25;9.45;;;;;;;;;;5036285;28;20088;-55
2021/10/29 14:35:25;;;;;;;14.48;8.38;;;;;;;;;;5035063;28;20455;-54
2021/10/29 14:38:03;;;;;;;19.20;8.95;;;;;;;;;;5036044;28;20033;-55
2021/10/29 15:05:05;;;;;;;18.55;8.75;;;;;;;;;;5029996;28;20037;-55
2021/10/29 15:27:09;;;;;;;25.30;10.25;;;;;;;;;;5034760;28;20430;-55
2021/10/29 15:32:47;;;;;;;25.75;11.15;;;;;;;;;;5034729;28;20518;-55
2021/10/29 15:43:35;;;;;;;15.07;9.00;;;;;;;;;;5033692;28;20500;-55
2021/10/29 15:51:17;;;;;;;16.20;8.02;;;;;;;;;;5034882;28;20027;-55
2021/10/29 15:53:44;;;;;;;20.52;9.75;;;;;;;;;;5033667;28;20026;-55
2021/10/29 15:56:16;;;;;;;20.85;9.43;;;;;;;;;;5036586;28;20447;-55
2021/10/29 16:01:39;;;;;;;16.08;8.60;;;;;;;;;;5041690;28;20025;-55
2021/10/29 16:17:49;;;;;;;18.27;9.95;;;;;;;;;;5044502;28;20040;-55
2021/10/29 16:20:15;;;;;;;18.50;8.88;;;;;;;;;;5040726;28;20394;-54
2021/10/29 16:22:41;;;;;;;17.67;8.55;;;;;;;;;;5053809;28;20033;-54
2021/10/29 16:30:06;;;;;;;21.00;9.35;;;;;;;;;;5053679;28;20029;-55
2021/10/29 16:35:16;;;;;;;23.77;9.85;;;;;;;;;;5043882;28;20033;-55
2021/10/29 16:37:44;;;;;;;30.92;10.35;;;;;;;;;;5044296;28;20036;-55
2021/10/29 16:40:10;;;;;;;28.63;11.75;;;;;;;;;;5040919;28;20018;-54
2021/10/29 16:42:37;;;;;;;21.20;8.52;;;;;;;;;;5032974;28;20025;-55
2021/10/29 16:45:03;;;;;;;21.30;9.35;;;;;;;;;;5031663;28;20100;-55
2021/10/29 16:47:29;;;;;;;17.13;9.18;;;;;;;;;;5039607;28;20021;-55
2021/10/29 16:49:56;;;;;;;25.70;10.05;;;;;;;;;;5042713;28;20058;-55
2021/10/29 16:52:22;;;;;;;23.35;10.88;;;;;;;;;;5049593;28;20037;-55
2021/10/29 16:54:48;;;;;;;20.77;9.65;;;;;;;;;;5045609;28;20087;-55
2021/10/29 16:57:15;;;;;;;26.63;10.48;;;;;;;;;;5040439;28;20037;-55
2021/10/29 16:59:41;;;;;;;22.77;10.88;;;;;;;;;;5042890;28;20049;-54
2021/10/29 17:02:08;;;;;;;27.20;11.93;;;;;;;;;;5040855;28;20052;-55
2021/10/29 17:04:34;;;;;;;34.97;13.20;;;;;;;;;;5036076;28;20025;-55
2021/10/29 17:07:00;;;;;;;28.75;11.20;;;;;;;;;;5043201;28;20026;-55
2021/10/29 17:09:27;;;;;;;25.05;11.35;;;;;;;;;;5036163;28;20082;-55
2021/10/29 17:11:54;;;;;;;26.70;12.30;;;;;;;;;;5043686;28;20037;-55
2021/10/29 17:14:20;;;;;;;32.72;13.27;;;;;;;;;;5034239;28;20120;-55
2021/10/29 17:16:47;;;;;;;28.05;11.13;;;;;;;;;;5040878;28;20032;-55
2021/10/29 17:19:13;;;;;;;21.17;9.40;;;;;;;;;;5039199;28;20029;-55
2021/10/29 17:21:39;;;;;;;19.73;9.48;;;;;;;;;;5040267;28;20043;-55
2021/10/29 17:24:05;;;;;;;26.52;10.25;;;;;;;;;;5036994;28;20606;-55
2021/10/29 17:26:32;;;;;;;24.83;11.35;;;;;;;;;;5039224;28;20104;-55
2021/10/29 17:28:59;;;;;;;19.73;10.10;;;;;;;;;;5063656;28;20039;-55
2021/10/29 17:31:25;;;;;;;17.52;8.80;;;;;;;;;;5058302;28;20041;-55
2021/10/29 17:33:51;;;;;;;24.63;9.98;;;;;;;;;;5035845;28;20121;-55
2021/10/29 17:36:18;;;;;;;24.92;11.30;;;;;;;;;;5035712;28;20634;-55
2021/10/29 17:38:44;;;;;;;18.75;9.95;;;;;;;;;;5041767;28;20035;-55
2021/10/29 17:41:10;;;;;;;20.33;10.20;;;;;;;;;;5047916;28;20025;-55
2021/10/29 17:43:37;;;;;;;39.90;12.85;;;;;;;;;;5042878;28;20036;-55
2021/10/29 17:46:03;;;;;;;20.60;9.55;;;;;;;;;;5043271;28;20044;-55
2021/10/29 17:48:29;;;;;;;23.55;9.75;;;;;;;;;;5041063;28;20256;-55
2021/10/29 17:50:55;;;;;;;21.83;10.95;;;;;;;;;;5041735;28;20074;-55
2021/10/29 17:53:23;;;;;;;27.92;10.52;;;;;;;;;;5041392;28;20060;-55
2021/10/29 17:55:49;;;;;;;28.05;12.23;;;;;;;;;;5048430;28;20084;-55
2021/10/29 17:58:15;;;;;;;19.10;9.65;;;;;;;;;;5031414;28;20064;-55
2021/10/29 18:00:45;;;;;;;27.00;11.40;;;;;;;;;;5038829;28;20030;-55
2021/10/29 18:03:11;;;;;;;29.30;12.25;;;;;;;;;;5036745;28;20031;-55
2021/10/29 18:05:37;;;;;;;27.38;12.10;;;;;;;;;;5039439;28;20070;-55
2021/10/29 18:08:07;;;;;;;35.45;12.80;;;;;;;;;;5039414;28;20029;-54
2021/10/29 18:10:34;;;;;;;;;;;;;;;;;;5036813;28;20041;-55
2021/10/29 18:13:00;;;;;;;29.58;11.93;;;;;;;;;;5034319;28;19913;-55
2021/10/29 18:15:26;;;;;;;28.10;10.40;;;;;;;;;;5035167;28;20435;-55
2021/10/29 18:17:52;;;;;;;28.27;11.15;;;;;;;;;;5045172;28;20461;-55
2021/10/29 18:20:19;;;;;;;28.65;10.45;;;;;;;;;;5032796;28;20033;-55
2021/10/29 18:22:45;;;;;;;29.50;11.80;;;;;;;;;;5037771;28;20040;-55
2021/10/29 18:25:11;;;;;;;33.05;13.98;;;;;;;;;;5039956;28;20014;-55
2021/10/29 18:27:37;;;;;;;37.90;15.30;;;;;;;;;;5037617;28;20025;-55
2021/10/29 18:30:04;;;;;;;28.30;11.93;;;;;;;;;;5036585;28;20569;-55
2021/10/29 18:32:30;;;;;;;30.60;13.20;;;;;;;;;;5037910;28;20043;-54
2021/10/29 18:34:57;;;;;;;30.63;10.77;;;;;;;;;;5044912;28;20013;-55
2021/10/29 18:37:23;;;;;;;37.00;12.38;;;;;;;;;;5046933;28;20336;-55
2021/10/29 18:39:50;;;;;;;30.02;12.45;;;;;;;;;;5050188;28;20026;-55
2021/10/29 18:42:16;;;;;;;32.92;13.00;;;;;;;;;;5044561;28;20029;-55
2021/10/29 18:44:43;;;;;;;27.95;13.30;;;;;;;;;;5048658;28;20452;-55
2021/10/29 18:47:09;;;;;;;35.88;12.98;;;;;;;;;;5049541;28;20017;-55
2021/10/29 18:49:35;;;;;;;22.25;10.88;;;;;;;;;;5044928;28;20014;-55
2021/10/29 18:52:02;;;;;;;30.58;12.73;;;;;;;;;;5050286;28;20370;-55
2021/10/29 18:54:29;;;;;;;24.85;11.00;;;;;;;;;;5039656;28;20032;-55
2021/10/29 18:56:55;;;;;;;32.50;13.90;;;;;;;;;;5047951;28;20403;-54
2021/10/29 18:59:21;;;;;;;32.58;13.70;;;;;;;;;;5041194;28;20084;-55
2021/10/29 19:01:51;;;;;;;29.30;12.05;;;;;;;;;;5043613;28;20029;-55
2021/10/29 19:04:17;;;;;;;22.48;11.32;;;;;;;;;;5054398;28;20055;-55
2021/10/29 19:06:47;;;;;;;29.77;12.82;;;;;;;;;;5054143;28;20044;-55
2021/10/29 19:09:13;;;;;;;31.30;12.50;;;;;;;;;;5054383;28;20031;-55
2021/10/29 19:11:40;;;;;;;40.25;13.82;;;;;;;;;;5054384;28;20333;-55
2021/10/29 19:14:11;;;;;;;39.58;14.43;;;;;;;;;;5053964;28;20033;-54
2021/10/29 19:16:37;;;;;;;;;;;;;;;;;;5055473;28;20063;-55
2021/10/29 19:19:03;;;;;;;38.53;13.40;;;;;;;;;;5030899;28;20297;-55
2021/10/29 19:21:29;;;;;;;31.25;13.70;;;;;;;;;;5048318;28;20043;-55
2021/10/29 19:23:56;;;;;;;28.52;12.48;;;;;;;;;;5048637;28;20021;-55
2021/10/29 19:26:22;;;;;;;28.15;12.70;;;;;;;;;;5054691;28;20025;-55
2021/10/29 19:28:48;;;;;;;34.88;13.02;;;;;;;;;;5050466;28;20030;-55
2021/10/29 19:31:15;;;;;;;31.55;12.27;;;;;;;;;;5054443;28;20371;-55
2021/10/29 19:33:41;;;;;;;30.80;11.68;;;;;;;;;;5053111;28;20351;-55
2021/10/29 19:36:10;;;;;;;26.00;11.75;;;;;;;;;;5053527;28;20021;-55